createdAt,value
2023-07-24T00:02:15.310Z,17.38
2023-07-24T00:04:42.917Z,17.41
2023-07-24T00:07:11.884Z,17.39
2023-07-24T00:09:39.470Z,17.34
2023-07-24T00:12:08.354Z,17.31
2023-07-24T00:14:35.917Z,17.29
2023-07-24T00:17:03.596Z,17.27
2023-07-24T00:19:31.176Z,17.27
2023-07-24T00:21:58.747Z,17.24
2023-07-24T00:24:27.753Z,17.23
2023-07-24T00:26:55.447Z,17.23
2023-07-24T00:29:23.136Z,17.22
2023-07-24T00:31:51.089Z,17.21
2023-07-24T00:34:18.746Z,17.19
2023-07-24T00:36:46.356Z,17.21
2023-07-24T00:39:16.682Z,17.20
2023-07-24T00:41:45.586Z,17.23
2023-07-24T00:44:13.307Z,17.17
2023-07-24T00:46:41.044Z,17.11
2023-07-24T00:49:09.827Z,17.16
2023-07-24T00:51:37.594Z,17.12
2023-07-24T00:54:06.656Z,17.15
2023-07-24T00:56:34.707Z,17.15
2023-07-24T00:59:03.901Z,17.19
2023-07-24T01:01:31.951Z,17.19
2023-07-24T01:03:59.938Z,17.22
2023-07-24T01:06:28.209Z,17.26
2023-07-24T01:08:56.330Z,17.35
2023-07-24T01:11:29.863Z,17.36
2023-07-24T01:14:00.791Z,17.33
2023-07-24T01:16:39.968Z,17.29
2023-07-24T01:19:17.988Z,17.34
2023-07-24T01:22:00.461Z,17.31
2023-07-24T01:24:35.498Z,17.36
2023-07-24T01:27:05.850Z,17.34
2023-07-24T01:29:33.489Z,17.41
2023-07-24T01:32:01.118Z,17.47
2023-07-24T01:34:29.049Z,17.48
2023-07-24T01:36:56.779Z,17.37
2023-07-24T01:39:24.529Z,17.36
2023-07-24T01:41:52.620Z,17.38
2023-07-24T01:44:21.514Z,17.42
2023-07-24T01:46:49.250Z,17.40
2023-07-24T01:49:16.941Z,17.39
2023-07-24T01:51:45.440Z,17.37
2023-07-24T01:54:13.072Z,17.36
2023-07-24T01:56:41.578Z,17.32
2023-07-24T01:59:09.234Z,17.33
2023-07-24T02:01:38.211Z,17.31
2023-07-24T02:04:05.974Z,17.29
2023-07-24T02:06:34.268Z,17.29
2023-07-24T02:09:01.881Z,17.29
2023-07-24T02:11:29.521Z,17.27
2023-07-24T02:13:57.207Z,17.25
2023-07-24T02:16:24.826Z,17.25
2023-07-24T02:18:53.848Z,17.25
2023-07-24T02:21:21.447Z,17.22
2023-07-24T02:23:49.056Z,17.24
2023-07-24T02:26:16.587Z,17.20
2023-07-24T02:28:44.241Z,17.20
2023-07-24T02:31:11.854Z,17.22
2023-07-24T02:33:39.475Z,17.19
2023-07-24T02:36:09.759Z,17.19
2023-07-24T02:38:38.090Z,17.18
2023-07-24T02:41:08.834Z,17.22
2023-07-24T02:43:37.269Z,17.20
2023-07-24T02:46:05.120Z,17.19
2023-07-24T02:48:32.743Z,17.17
2023-07-24T02:51:00.360Z,17.22
2023-07-24T02:53:29.364Z,17.26
2023-07-24T02:55:56.924Z,17.26
2023-07-24T02:58:24.515Z,17.23
2023-07-24T03:00:53.018Z,17.22
2023-07-24T03:03:20.708Z,17.19
2023-07-24T03:05:48.425Z,17.13
2023-07-24T03:08:16.034Z,17.12
2023-07-24T03:10:44.962Z,17.25
2023-07-24T03:13:11.612Z,17.15
2023-07-24T03:15:39.269Z,17.16
2023-07-24T03:18:06.941Z,17.14
2023-07-24T03:20:34.583Z,17.21
2023-07-24T03:23:02.203Z,17.26
2023-07-24T03:25:29.770Z,17.33
2023-07-24T03:27:58.696Z,17.30
2023-07-24T03:30:27.642Z,17.38
2023-07-24T03:32:55.363Z,17.34
2023-07-24T03:35:23.177Z,17.33
2023-07-24T03:37:50.833Z,17.42
2023-07-24T03:40:18.549Z,17.40
2023-07-24T03:42:46.072Z,17.38
2023-07-24T03:45:15.055Z,17.46
2023-07-24T03:47:43.223Z,17.52
2023-07-24T03:50:11.644Z,17.54
2023-07-24T03:52:39.178Z,17.47
2023-07-24T03:55:08.936Z,17.48
2023-07-24T03:57:36.603Z,17.44
2023-07-24T04:00:04.309Z,17.46
2023-07-24T04:02:41.684Z,17.53
2023-07-24T04:05:09.651Z,17.50
2023-07-24T04:07:38.221Z,17.50
2023-07-24T04:10:06.856Z,17.45
2023-07-24T04:12:34.466Z,17.45
2023-07-24T04:15:02.011Z,17.48
2023-07-24T04:17:29.702Z,17.39
2023-07-24T04:19:58.664Z,17.49
2023-07-24T04:22:27.207Z,17.42
2023-07-24T04:24:54.810Z,17.39
2023-07-24T04:27:22.345Z,17.48
2023-07-24T04:29:50.005Z,17.35
2023-07-24T04:32:17.637Z,17.43
2023-07-24T04:34:45.239Z,17.42
2023-07-24T04:37:14.104Z,17.42
2023-07-24T04:39:41.913Z,17.44
2023-07-24T04:42:09.467Z,17.38
2023-07-24T04:44:37.060Z,17.41
2023-07-24T04:47:05.063Z,17.48
2023-07-24T04:49:33.898Z,17.44
2023-07-24T04:52:01.820Z,17.37
2023-07-24T04:54:30.739Z,17.36
2023-07-24T04:56:58.332Z,17.39
2023-07-24T04:59:25.959Z,17.42
2023-07-24T05:01:53.703Z,17.41
2023-07-24T05:04:21.416Z,17.41
2023-07-24T05:06:49.047Z,17.41
2023-07-24T05:09:16.630Z,17.52
2023-07-24T05:11:45.769Z,17.47
2023-07-24T05:14:13.505Z,17.57
2023-07-24T05:16:41.132Z,17.50
2023-07-24T05:19:08.794Z,17.53
2023-07-24T05:21:36.410Z,17.52
2023-07-24T05:24:04.343Z,17.57
2023-07-24T05:26:32.291Z,17.65
2023-07-24T05:29:01.464Z,17.71
2023-07-24T05:31:29.023Z,17.83
2023-07-24T05:33:56.716Z,17.84
2023-07-24T05:36:24.378Z,17.86
2023-07-24T05:38:53.708Z,17.89
2023-07-24T05:41:21.305Z,18.04
2023-07-24T05:43:48.845Z,18.03
2023-07-24T05:46:17.984Z,18.02
2023-07-24T05:48:45.579Z,18.11
2023-07-24T05:51:13.150Z,18.22
2023-07-24T05:53:40.720Z,18.27
2023-07-24T05:56:08.304Z,18.34
2023-07-24T05:58:35.997Z,18.27
2023-07-24T06:01:04.340Z,18.27
2023-07-24T06:03:33.346Z,18.12
2023-07-24T06:06:01.009Z,18.12
2023-07-24T06:08:28.628Z,18.06
2023-07-24T06:10:56.264Z,18.17
2023-07-24T06:13:23.878Z,18.36
2023-07-24T06:15:52.360Z,18.41
2023-07-24T06:18:20.128Z,18.58
2023-07-24T06:20:51.067Z,18.70
2023-07-24T06:23:18.756Z,18.82
2023-07-24T06:25:46.341Z,18.86
2023-07-24T06:28:13.954Z,18.88
2023-07-24T06:30:41.530Z,18.88
2023-07-24T06:33:09.165Z,18.89
2023-07-24T06:35:37.053Z,18.92
2023-07-24T06:38:06.002Z,18.88
2023-07-24T06:40:33.589Z,18.90
2023-07-24T06:43:01.250Z,18.91
2023-07-24T06:45:28.781Z,18.84
2023-07-24T06:47:56.426Z,18.78
2023-07-24T06:50:24.117Z,18.78
2023-07-24T06:52:52.878Z,18.72
2023-07-24T06:55:21.816Z,18.79
2023-07-24T06:57:49.425Z,18.78
2023-07-24T07:00:17.302Z,18.77
2023-07-24T07:02:45.003Z,18.74
2023-07-24T07:05:12.651Z,18.62
2023-07-24T07:07:40.279Z,18.59
2023-07-24T07:10:09.104Z,18.43
2023-07-24T07:12:38.051Z,18.48
2023-07-24T07:15:06.391Z,18.47
2023-07-24T07:17:34.008Z,18.48
2023-07-24T07:20:01.707Z,18.48
2023-07-24T07:22:29.278Z,18.48
2023-07-24T07:24:56.875Z,18.44
2023-07-24T07:27:24.477Z,18.44
2023-07-24T07:29:53.351Z,18.53
2023-07-24T07:32:21.000Z,18.55
2023-07-24T07:34:48.732Z,18.52
2023-07-24T07:37:16.363Z,18.60
2023-07-24T07:39:43.921Z,18.65
2023-07-24T07:42:18.271Z,18.70
2023-07-24T07:44:47.212Z,18.84
2023-07-24T07:47:16.242Z,18.91
2023-07-24T07:49:43.894Z,18.90
2023-07-24T07:52:11.569Z,18.97
2023-07-24T07:54:39.189Z,19.11
2023-07-24T07:57:07.124Z,19.16
2023-07-24T07:59:36.064Z,19.26
2023-07-24T08:02:03.763Z,19.21
2023-07-24T08:04:33.263Z,19.28
2023-07-24T08:07:00.925Z,19.29
2023-07-24T08:09:28.893Z,19.20
2023-07-24T08:11:56.486Z,19.30
2023-07-24T08:14:24.137Z,19.24
2023-07-24T08:16:52.277Z,19.17
2023-07-24T08:19:19.956Z,19.13
2023-07-24T08:21:49.969Z,19.11
2023-07-24T08:24:17.591Z,19.15
2023-07-24T08:26:45.279Z,19.14
2023-07-24T08:29:12.872Z,19.09
2023-07-24T08:31:40.725Z,19.06
2023-07-24T08:34:08.411Z,19.10
2023-07-24T08:36:36.183Z,19.10
2023-07-24T08:39:05.262Z,19.23
2023-07-24T08:41:35.517Z,19.26
2023-07-24T08:44:03.572Z,19.42
2023-07-24T08:46:31.662Z,19.63
2023-07-24T08:48:59.759Z,19.81
2023-07-24T08:51:28.034Z,19.79
2023-07-24T08:53:56.111Z,19.70
2023-07-24T08:56:25.350Z,19.59
2023-07-24T08:58:52.953Z,19.57
2023-07-24T09:01:20.620Z,19.52
2023-07-24T09:03:49.193Z,19.57
2023-07-24T09:06:18.501Z,19.60
2023-07-24T09:08:46.078Z,19.76
2023-07-24T09:11:16.528Z,19.85
2023-07-24T09:13:46.375Z,19.85
2023-07-24T09:16:23.279Z,19.87
2023-07-24T09:18:59.876Z,20.07
2023-07-24T09:21:37.843Z,20.18
2023-07-24T09:24:12.669Z,20.39
2023-07-24T09:26:49.389Z,20.28
2023-07-24T09:29:18.808Z,20.20
2023-07-24T09:31:46.734Z,20.30
2023-07-24T09:34:18.826Z,20.33
2023-07-24T09:36:46.635Z,20.27
2023-07-24T09:39:14.240Z,20.12
2023-07-24T09:41:42.420Z,20.15
2023-07-24T09:44:10.019Z,20.21
2023-07-24T09:46:45.954Z,20.03
2023-07-24T09:49:16.224Z,20.18
2023-07-24T09:51:48.632Z,20.27
2023-07-24T09:54:22.999Z,20.18
2023-07-24T09:57:03.475Z,20.42
2023-07-24T09:59:38.655Z,20.86
2023-07-24T10:02:10.904Z,21.16
2023-07-24T10:04:41.216Z,21.49
2023-07-24T10:07:09.021Z,21.35
2023-07-24T10:09:38.862Z,21.43
2023-07-24T10:12:07.480Z,21.22
2023-07-24T10:14:36.894Z,20.95
2023-07-24T10:17:04.743Z,21.05
2023-07-24T10:19:41.077Z,20.92
2023-07-24T10:22:09.181Z,20.90
2023-07-24T10:24:41.710Z,20.74
2023-07-24T10:27:10.208Z,20.71
2023-07-24T10:29:38.359Z,20.70
2023-07-24T10:32:07.522Z,20.63
2023-07-24T10:34:40.461Z,20.63
2023-07-24T10:37:10.765Z,20.68
2023-07-24T10:39:42.322Z,20.70
2023-07-24T10:42:11.572Z,20.76
2023-07-24T10:44:39.306Z,20.75
2023-07-24T10:47:06.916Z,20.90
2023-07-24T10:49:34.479Z,20.92
2023-07-24T10:52:03.548Z,21.27
2023-07-24T10:54:31.192Z,21.71
2023-07-24T10:57:02.656Z,21.70
2023-07-24T10:59:40.271Z,21.58
2023-07-24T11:02:09.195Z,21.82
2023-07-24T11:04:37.213Z,22.12
2023-07-24T11:07:06.328Z,22.17
2023-07-24T11:09:38.137Z,22.06
2023-07-24T11:12:16.704Z,22.24
2023-07-24T11:14:51.570Z,22.15
2023-07-24T11:17:19.651Z,21.81
2023-07-24T11:19:47.346Z,21.85
2023-07-24T11:22:16.511Z,22.14
2023-07-24T11:24:45.727Z,22.06
2023-07-24T11:27:15.822Z,22.24
2023-07-24T11:29:43.605Z,22.08
2023-07-24T11:32:11.252Z,22.28
2023-07-24T11:34:39.003Z,22.22
2023-07-24T11:37:08.518Z,22.21
2023-07-24T11:39:37.477Z,22.47
2023-07-24T11:42:05.621Z,22.80
2023-07-24T11:47:05.102Z,22.76
2023-07-24T11:49:33.635Z,22.65
2023-07-24T11:52:06.133Z,22.69
2023-07-24T11:54:37.561Z,22.53
2023-07-24T11:57:05.349Z,22.60
2023-07-24T11:59:40.299Z,22.53
2023-07-24T12:02:12.351Z,22.58
2023-07-24T12:04:40.095Z,22.42
2023-07-24T12:07:10.001Z,22.17
2023-07-24T12:09:38.932Z,22.26
2023-07-24T12:12:07.256Z,22.63
2023-07-24T12:14:34.873Z,22.94
2023-07-24T12:17:03.768Z,23.05
2023-07-24T12:19:32.000Z,23.29
2023-07-24T12:21:59.637Z,23.42
2023-07-24T12:24:27.374Z,23.49
2023-07-24T12:26:56.277Z,23.54
2023-07-24T12:29:23.912Z,23.86
2023-07-24T12:31:51.465Z,24.02
2023-07-24T12:34:19.157Z,24.11
2023-07-24T12:36:48.565Z,24.16
2023-07-24T12:39:16.172Z,23.85
2023-07-24T12:41:43.787Z,23.79
2023-07-24T12:44:12.702Z,23.76
2023-07-24T12:46:40.385Z,23.74
2023-07-24T12:49:07.980Z,23.66
2023-07-24T12:51:35.578Z,23.26
2023-07-24T12:54:06.084Z,23.48
2023-07-24T12:56:42.498Z,23.94
2023-07-24T12:59:10.165Z,23.77
2023-07-24T13:01:39.161Z,23.80
2023-07-24T13:04:06.888Z,23.82
2023-07-24T13:06:34.666Z,23.68
2023-07-24T13:09:02.344Z,23.82
2023-07-24T13:11:30.221Z,23.96
2023-07-24T13:13:58.655Z,23.73
2023-07-24T13:16:26.492Z,23.38
2023-07-24T13:18:55.489Z,23.14
2023-07-24T13:21:24.152Z,23.12
2023-07-24T13:23:52.612Z,23.12
2023-07-24T13:26:20.403Z,23.14
2023-07-24T13:28:47.992Z,23.24
2023-07-24T13:31:16.659Z,23.39
2023-07-24T13:33:44.295Z,23.61
2023-07-24T13:36:13.303Z,23.77
2023-07-24T13:38:42.249Z,23.67
2023-07-24T13:41:10.131Z,23.67
2023-07-24T13:43:37.733Z,23.63
2023-07-24T13:46:05.932Z,23.56
2023-07-24T13:48:33.493Z,23.59
2023-07-24T13:51:01.119Z,23.46
2023-07-24T13:53:30.123Z,23.34
2023-07-24T13:55:58.024Z,23.25
2023-07-24T13:58:25.676Z,23.27
2023-07-24T14:00:53.273Z,23.33
2023-07-24T14:03:20.941Z,23.51
2023-07-24T14:05:48.592Z,23.49
2023-07-24T14:08:16.159Z,23.46
2023-07-24T14:10:45.090Z,23.63
2023-07-24T14:13:12.662Z,23.67
2023-07-24T14:15:40.283Z,23.58
2023-07-24T14:18:07.878Z,23.42
2023-07-24T14:20:35.507Z,23.35
2023-07-24T14:23:03.304Z,23.21
2023-07-24T14:25:30.908Z,23.15
2023-07-24T14:27:59.867Z,22.93
2023-07-24T14:30:27.439Z,22.91
2023-07-24T14:32:55.133Z,22.81
2023-07-24T14:35:23.003Z,22.69
2023-07-24T14:37:50.611Z,22.67
2023-07-24T14:40:18.295Z,22.66
2023-07-24T14:42:45.864Z,22.56
2023-07-24T14:45:15.023Z,22.60
2023-07-24T14:47:42.634Z,22.49
2023-07-24T14:50:11.121Z,22.30
2023-07-24T14:52:38.886Z,22.14
2023-07-24T14:55:07.209Z,22.03
2023-07-24T14:57:34.851Z,21.91
2023-07-24T15:00:02.509Z,21.80
2023-07-24T15:02:33.711Z,21.78
2023-07-24T15:05:01.440Z,21.75
2023-07-24T15:07:29.262Z,21.70
2023-07-24T15:09:57.382Z,21.68
2023-07-24T15:12:25.832Z,21.64
2023-07-24T15:14:53.444Z,21.53
2023-07-24T15:17:21.039Z,21.44
2023-07-24T15:19:49.966Z,21.38
2023-07-24T15:22:17.554Z,21.39
2023-07-24T15:24:45.175Z,21.30
2023-07-24T15:27:12.774Z,21.19
2023-07-24T15:29:40.362Z,18.79
2023-07-24T15:32:09.238Z,15.12
2023-07-24T15:34:39.638Z,14.14
2023-07-24T15:37:08.903Z,13.97
2023-07-24T15:39:36.561Z,13.93
2023-07-24T15:42:04.623Z,14.10
2023-07-24T15:44:32.222Z,14.23
2023-07-24T15:46:59.926Z,14.34
2023-07-24T15:49:27.618Z,14.51
2023-07-24T15:51:55.772Z,14.48
2023-07-24T15:54:24.734Z,14.54
2023-07-24T15:56:52.407Z,14.71
2023-07-24T15:59:20.004Z,14.94
2023-07-24T16:01:47.706Z,15.06
2023-07-24T16:04:15.335Z,15.23
2023-07-24T16:06:42.921Z,15.29
2023-07-24T16:09:10.536Z,15.38
2023-07-24T16:11:39.524Z,15.49
2023-07-24T16:14:07.258Z,15.59
2023-07-24T16:16:34.849Z,15.69
2023-07-24T16:19:15.988Z,15.59
2023-07-24T16:21:44.727Z,15.66
2023-07-24T16:24:12.993Z,15.70
2023-07-24T16:26:42.102Z,15.82
2023-07-24T16:29:11.200Z,15.82
2023-07-24T16:31:39.799Z,15.83
2023-07-24T16:34:07.518Z,15.79
2023-07-24T16:36:36.095Z,15.89
2023-07-24T16:39:06.253Z,15.90
2023-07-24T16:41:34.214Z,15.98
2023-07-24T16:44:03.508Z,16.09
2023-07-24T16:46:31.488Z,16.16
2023-07-24T16:48:59.069Z,16.24
2023-07-24T16:51:26.714Z,16.19
2023-07-24T16:53:54.444Z,16.24
2023-07-24T16:56:22.045Z,16.27
2023-07-24T16:58:49.775Z,16.36
2023-07-24T17:01:18.814Z,16.37
2023-07-24T17:03:46.463Z,16.32
2023-07-24T17:06:14.176Z,16.27
2023-07-24T17:08:41.896Z,16.29
2023-07-24T17:11:09.583Z,16.39
2023-07-24T17:13:37.449Z,16.30
2023-07-24T17:16:05.312Z,16.42
2023-07-24T17:18:34.224Z,16.55
2023-07-24T17:21:01.826Z,16.66
2023-07-24T17:23:29.345Z,16.56
2023-07-24T17:25:56.995Z,16.31
2023-07-24T17:28:24.536Z,16.25
2023-07-24T17:30:52.413Z,16.15
2023-07-24T17:33:19.965Z,16.08
2023-07-24T17:35:48.884Z,16.07
2023-07-24T17:38:16.499Z,16.11
2023-07-24T17:40:44.133Z,16.14
2023-07-24T17:43:11.771Z,16.12
2023-07-24T17:45:39.671Z,16.07
2023-07-24T17:48:07.542Z,15.97
2023-07-24T17:50:37.516Z,16.01
2023-07-24T17:53:06.509Z,16.02
2023-07-24T17:55:34.095Z,16.01
2023-07-24T17:58:01.779Z,16.08
2023-07-24T18:00:29.365Z,16.03
2023-07-24T18:02:57.059Z,15.98
2023-07-24T18:05:24.635Z,16.05
2023-07-24T18:07:52.964Z,16.01
2023-07-24T18:10:22.577Z,16.05
2023-07-24T18:12:50.639Z,16.05
2023-07-24T18:15:18.482Z,16.08
2023-07-24T18:17:46.484Z,16.13
2023-07-24T18:20:14.376Z,16.16
2023-07-24T18:22:42.580Z,16.23
2023-07-24T18:25:10.560Z,16.24
2023-07-24T18:27:39.816Z,16.27
2023-07-24T18:30:08.851Z,16.27
2023-07-24T18:32:36.520Z,16.25
2023-07-24T18:35:04.334Z,16.19
2023-07-24T18:37:31.963Z,16.08
2023-07-24T18:39:59.522Z,16.12
2023-07-24T18:42:27.129Z,16.10
2023-07-24T18:44:56.047Z,16.04
2023-07-24T18:47:23.812Z,15.98
2023-07-24T18:49:51.374Z,16.00
2023-07-24T18:52:19.027Z,16.14
2023-07-24T18:54:46.571Z,16.10
2023-07-24T18:57:14.157Z,16.13
2023-07-24T18:59:41.830Z,16.10
2023-07-24T19:02:10.883Z,16.06
2023-07-24T19:04:38.505Z,16.09
2023-07-24T19:07:07.053Z,16.06
2023-07-24T19:09:34.695Z,16.02
2023-07-24T19:12:02.589Z,15.92
2023-07-24T19:14:30.174Z,15.93
2023-07-24T19:16:57.758Z,15.91
2023-07-24T19:19:26.732Z,15.95
2023-07-24T19:21:54.322Z,15.90
2023-07-24T19:24:22.047Z,15.92
2023-07-24T19:26:49.768Z,15.88
2023-07-24T19:29:17.354Z,15.92
2023-07-24T19:31:45.140Z,15.88
2023-07-24T19:34:12.752Z,15.84
2023-07-24T19:36:41.678Z,15.76
2023-07-24T19:39:09.283Z,15.75
2023-07-24T19:41:36.894Z,15.75
2023-07-24T19:44:04.509Z,15.78
2023-07-24T19:46:32.091Z,15.72
2023-07-24T19:49:01.244Z,15.69
2023-07-24T19:51:29.116Z,15.74
2023-07-24T19:53:58.284Z,15.75
2023-07-24T19:56:25.934Z,15.83
2023-07-24T19:58:54.485Z,15.79
2023-07-24T20:01:22.165Z,15.84
2023-07-24T20:03:49.899Z,15.84
2023-07-24T20:06:17.543Z,15.89
2023-07-24T20:08:45.150Z,15.84
2023-07-24T20:11:14.094Z,15.87
2023-07-24T20:13:41.706Z,15.90
2023-07-24T20:16:09.430Z,15.90
2023-07-24T20:18:37.037Z,15.90
2023-07-24T20:21:04.800Z,15.87
2023-07-24T20:23:32.423Z,15.89
2023-07-24T20:26:00.003Z,15.88
2023-07-24T20:28:28.973Z,15.85
2023-07-24T20:30:56.578Z,15.84
2023-07-24T20:33:24.683Z,15.82
2023-07-24T20:35:52.528Z,15.83
2023-07-24T20:38:24.676Z,15.82
2023-07-24T20:40:52.821Z,15.78
2023-07-24T20:43:20.630Z,15.71
2023-07-24T20:45:51.603Z,15.60
2023-07-24T20:48:19.329Z,15.48
2023-07-24T20:50:46.939Z,15.44
2023-07-24T20:53:14.699Z,15.28
2023-07-24T20:55:42.274Z,15.24
2023-07-24T20:58:11.796Z,15.27
2023-07-24T21:00:39.396Z,15.24
2023-07-24T21:03:08.383Z,15.21
2023-07-24T21:05:38.056Z,15.23
2023-07-24T21:08:06.076Z,15.24
2023-07-24T21:10:33.682Z,15.21
2023-07-24T21:13:01.241Z,15.24
2023-07-24T21:15:28.837Z,15.20
2023-07-24T21:17:56.464Z,15.20
2023-07-24T21:20:25.522Z,15.23
2023-07-24T21:22:53.261Z,15.13
2023-07-24T21:25:20.891Z,15.09
2023-07-24T21:27:48.563Z,15.07
2023-07-24T21:30:16.241Z,15.01
2023-07-24T21:32:43.867Z,15.01
2023-07-24T21:35:11.673Z,15.00
2023-07-24T21:37:42.494Z,14.95
2023-07-24T21:40:10.846Z,14.96
2023-07-24T21:42:38.476Z,14.90
2023-07-24T21:45:08.010Z,14.88
2023-07-24T21:47:35.705Z,14.84
2023-07-24T21:50:03.365Z,14.84
2023-07-24T21:52:30.967Z,14.82
2023-07-24T21:55:00.008Z,14.82
2023-07-24T21:57:28.182Z,14.76
2023-07-24T21:59:55.727Z,14.72
2023-07-24T22:02:23.414Z,14.71
2023-07-24T22:04:51.044Z,14.71
2023-07-24T22:07:18.701Z,14.64
2023-07-24T22:09:46.302Z,14.71
2023-07-24T22:12:15.424Z,14.77
2023-07-24T22:14:43.033Z,14.72
2023-07-24T22:17:10.953Z,14.72
2023-07-24T22:19:38.563Z,14.73
2023-07-24T22:22:07.332Z,14.70
2023-07-24T22:24:37.716Z,14.71
2023-07-24T22:27:06.173Z,14.72
2023-07-24T22:29:35.086Z,14.70
2023-07-24T22:32:02.693Z,14.67
2023-07-24T22:34:30.420Z,14.71
2023-07-24T22:36:58.042Z,14.69
2023-07-24T22:39:25.793Z,14.68
2023-07-24T22:41:53.393Z,14.69
2023-07-24T22:44:20.983Z,14.65
2023-07-24T22:46:50.031Z,14.66
2023-07-24T22:49:17.644Z,14.59
2023-07-24T22:51:45.317Z,14.51
2023-07-24T22:54:12.932Z,14.48
2023-07-24T22:56:41.394Z,14.50
2023-07-24T22:59:23.144Z,14.52
2023-07-24T23:01:54.107Z,14.47
2023-07-24T23:04:24.058Z,14.46
2023-07-24T23:06:53.475Z,14.46
2023-07-24T23:09:21.030Z,14.47
2023-07-24T23:11:48.663Z,14.42
2023-07-24T23:14:16.325Z,14.38
2023-07-24T23:16:43.998Z,14.32
2023-07-24T23:19:12.915Z,14.36
2023-07-24T23:21:40.472Z,14.34
2023-07-24T23:24:08.050Z,14.29
2023-07-24T23:26:35.653Z,14.34
2023-07-24T23:29:03.199Z,14.33
2023-07-24T23:31:31.121Z,14.31
2023-07-24T23:33:59.416Z,14.29
2023-07-24T23:36:28.545Z,14.34
2023-07-24T23:38:56.201Z,14.26
2023-07-24T23:41:23.939Z,14.30
2023-07-24T23:43:51.537Z,14.27
2023-07-24T23:46:19.261Z,14.19
2023-07-24T23:48:46.900Z,14.19
2023-07-24T23:51:15.523Z,14.17
2023-07-24T23:53:45.112Z,14.12
2023-07-24T23:56:12.717Z,14.17
2023-07-24T23:58:40.639Z,14.18
